Time;durP1;ratioP1;P1;durP2;ratioP2;P2;SDS_P1;SDS_P2;PMS_P1;PMS_P2;Temp;Humidity;BMP_temperature;BMP_pressure;BME280_temperature;BME280_humidity;BME280_pressure;Samples;Min_cycle;Max_cycle;Signal;HPM_P1;HPM_P2
2023/05/12 04:34:55;;;;;;;9.90;6.60;;;;;;;10.85;92.71;101810.59;104414;1283;601313;-75
2023/05/12 04:37:25;;;;;;;10.80;6.10;;;;;;;10.97;91.50;101813.08;106955;1260;62128;-74
2023/05/12 04:39:53;;;;;;;11.10;5.70;;;;;;;11.09;88.90;101815.19;106999;1247;61810;-73
2023/05/12 04:42:23;;;;;;;12.00;5.60;;;;;;;11.23;87.51;101811.59;107114;1254;72349;-73
2023/05/12 04:44:52;;;;;;;7.10;5.00;;;;;;;11.33;86.52;101809.23;106817;1252;61560;-73
2023/05/12 04:47:21;;;;;;;6.90;5.20;;;;;;;11.44;85.52;101807.73;106531;1258;254205;-72
2023/05/12 04:49:50;;;;;;;8.10;5.10;;;;;;;11.55;86.32;101810.05;106942;1258;62563;-73
2023/05/12 04:52:20;;;;;;;11.50;5.20;;;;;;;11.67;83.48;101811.59;106964;1248;61008;-73
2023/05/12 04:54:51;;;;;;;12.20;5.50;;;;;;;11.79;82.46;101811.27;106876;1246;61672;-74
2023/05/12 04:57:20;;;;;;;10.30;5.00;;;;;;;11.89;81.87;101808.73;106976;1245;71457;-74
2023/05/12 04:59:49;;;;;;;9.50;5.60;;;;;;;12.02;83.21;101813.06;106849;1244;71208;-74
2023/05/12 05:02:18;;;;;;;8.70;5.50;;;;;;;12.09;79.98;101816.23;109269;1244;69375;-74
2023/05/12 05:04:47;;;;;;;11.10;5.30;;;;;;;12.19;80.56;101819.14;108793;1247;73008;-74
2023/05/12 05:07:16;;;;;;;9.90;5.60;;;;;;;12.28;77.51;101818.94;107004;1249;61446;-75
2023/05/12 05:09:45;;;;;;;11.70;5.50;;;;;;;12.37;76.85;101819.77;107038;1256;60974;-74
2023/05/12 05:12:14;;;;;;;9.50;5.50;;;;;;;12.48;76.53;101823.31;107071;1255;63029;-74
2023/05/12 05:14:43;;;;;;;9.90;5.90;;;;;;;12.58;75.67;101822.16;107118;1258;61565;-74
2023/05/12 05:17:12;;;;;;;11.10;5.10;;;;;;;12.63;75.08;101820.59;107139;1258;61533;-84
2023/05/12 05:19:41;;;;;;;9.50;5.00;;;;;;;12.69;74.37;101816.71;107173;1258;63277;-73
2023/05/12 05:22:26;;;;;;;8.80;4.90;;;;;;;12.72;73.25;101818.58;107057;1248;59264;-74
2023/05/12 05:24:55;;;;;;;12.30;5.50;;;;;;;12.79;73.46;101816.75;106925;1251;58960;-73
2023/05/12 05:27:24;;;;;;;8.50;4.70;;;;;;;12.92;73.32;101822.38;107121;1258;71710;-74
2023/05/12 05:29:53;;;;;;;8.80;4.90;;;;;;;12.98;72.62;101824.45;107105;1249;63154;-75
2023/05/12 05:32:22;;;;;;;8.10;4.70;;;;;;;13.06;72.50;101823.39;107035;1256;69139;-75
2023/05/12 05:34:51;;;;;;;6.90;4.80;;;;;;;13.12;71.80;101825.32;107025;1248;62758;-74
2023/05/12 05:37:20;;;;;;;18.10;6.70;;;;;;;13.23;70.59;101824.78;107121;1247;59491;-74
2023/05/12 05:39:49;;;;;;;10.10;5.00;;;;;;;13.33;70.78;101829.02;107083;1248;57536;-74
2023/05/12 05:42:18;;;;;;;7.00;4.50;;;;;;;13.41;70.93;101834.27;107084;1245;72303;-74
2023/05/12 05:44:47;;;;;;;11.60;5.60;;;;;;;13.49;70.98;101837.59;107028;1245;72114;-74
2023/05/12 05:47:17;;;;;;;12.80;5.20;;;;;;;13.57;69.26;101835.13;107115;1256;70406;-74
2023/05/12 05:49:46;;;;;;;7.60;4.90;;;;;;;13.62;69.20;101833.52;106962;1249;64045;-75
2023/05/12 05:52:16;;;;;;;10.60;4.40;;;;;;;13.71;69.24;101835.36;107047;1251;61452;-74
2023/05/12 05:54:45;;;;;;;7.30;4.10;;;;;;;13.82;68.17;101833.93;107067;1248;61469;-72
2023/05/12 05:57:15;;;;;;;7.70;4.90;;;;;;;13.90;68.11;101834.27;109423;1244;73513;-74
2023/05/12 05:59:45;;;;;;;8.10;4.60;;;;;;;13.96;67.22;101835.13;109401;1245;62350;-81
2023/05/12 06:02:14;;;;;;;6.70;4.00;;;;;;;14.00;65.84;101833.76;109426;1244;68803;-74
2023/05/12 06:04:43;;;;;;;7.60;4.10;;;;;;;14.13;66.30;101830.39;109399;1248;73280;-75
2023/05/12 06:07:12;;;;;;;11.50;4.90;;;;;;;14.24;66.37;101834.53;109325;1248;57578;-74
2023/05/12 06:09:42;;;;;;;8.60;4.80;;;;;;;14.32;64.48;101829.96;109358;1244;61219;-74
2023/05/12 06:12:11;;;;;;;8.10;4.00;;;;;;;14.45;64.02;101838.12;109332;1244;63015;-73
2023/05/12 06:14:40;;;;;;;9.00;4.20;;;;;;;14.58;63.67;101842.15;109329;1248;61595;-75
2023/05/12 06:17:09;;;;;;;6.30;3.80;;;;;;;14.64;63.53;101842.27;109359;1245;70801;-75
2023/05/12 06:19:38;;;;;;;16.30;5.10;;;;;;;14.66;63.69;101844.25;109245;1244;73459;-75
2023/05/12 06:22:06;;;;;;;7.00;3.90;;;;;;;14.79;62.59;101845.55;109407;1244;61255;-74
2023/05/12 06:24:35;;;;;;;5.80;4.40;;;;;;;14.99;61.42;101845.85;109382;1248;57178;-74
2023/05/12 06:27:04;;;;;;;5.40;3.80;;;;;;;15.17;61.06;101849.26;109308;1248;61378;-74
2023/05/12 06:29:33;;;;;;;9.70;5.00;;;;;;;15.35;60.92;101844.44;109513;1248;70877;-74
2023/05/12 06:32:02;;;;;;;5.70;4.30;;;;;;;15.41;59.41;101840.98;109388;1248;60286;-75
2023/05/12 06:34:31;;;;;;;5.10;3.60;;;;;;;15.39;58.06;101840.63;109332;1248;63289;-72
2023/05/12 06:37:00;;;;;;;5.80;4.00;;;;;;;15.32;59.09;101838.48;109507;1248;57675;-76
2023/05/12 06:39:30;;;;;;;5.00;3.10;;;;;;;15.41;58.57;101836.41;109429;1244;61145;-78
2023/05/12 06:41:59;;;;;;;8.00;3.80;;;;;;;15.57;58.52;101836.23;109446;1247;62917;-73
2023/05/12 06:44:31;;;;;;;8.40;4.40;;;;;;;15.69;57.69;101835.59;109482;1244;71419;-74
2023/05/12 06:47:00;;;;;;;6.50;3.40;;;;;;;15.89;56.79;101832.44;109355;1248;59782;-75
2023/05/12 06:49:30;;;;;;;5.20;3.20;;;;;;;16.08;55.38;101830.60;109504;1244;73849;-77
2023/05/12 06:51:58;;;;;;;6.40;3.30;;;;;;;16.14;53.74;101829.66;109425;1246;60943;-75
2023/05/12 06:54:27;;;;;;;7.20;3.10;;;;;;;16.16;51.57;101830.56;109515;1245;57163;-74
2023/05/12 06:56:58;;;;;;;8.60;3.50;;;;;;;16.21;50.28;101837.37;109436;1244;70765;-77
2023/05/12 06:59:26;;;;;;;4.70;3.50;;;;;;;16.32;49.76;101839.11;109473;1244;72516;-75
2023/05/12 07:01:55;;;;;;;6.10;3.00;;;;;;;16.47;50.02;101840.10;109457;1245;60379;-74
2023/05/12 07:04:25;;;;;;;9.60;3.60;;;;;;;16.34;48.67;101841.63;109421;1247;62887;-74
2023/05/12 07:06:55;;;;;;;4.90;3.30;;;;;;;16.36;49.05;101844.98;109419;1248;57627;-73
2023/05/12 07:09:24;;;;;;;6.70;4.00;;;;;;;16.48;49.18;101845.58;109447;1245;57137;-78
2023/05/12 07:11:53;;;;;;;7.70;3.30;;;;;;;16.41;48.71;101842.27;109487;1244;71949;-73
2023/05/12 07:14:22;;;;;;;4.30;3.10;;;;;;;16.65;48.99;101840.73;109458;1245;72263;-73
2023/05/12 07:16:50;;;;;;;6.60;4.20;;;;;;;16.76;48.71;101839.69;109444;1244;70088;-79
2023/05/12 07:19:19;;;;;;;7.10;3.10;;;;;;;17.04;49.54;101838.30;109315;1248;63847;-77
2023/05/12 07:21:48;;;;;;;5.00;3.20;;;;;;;17.12;49.09;101839.77;109386;1247;59422;-78
2023/05/12 07:24:16;;;;;;;17.00;6.80;;;;;;;17.28;47.31;101839.11;109453;1244;61493;-75
2023/05/12 07:26:46;;;;;;;10.00;4.00;;;;;;;17.28;45.88;101842.67;109473;1248;62026;-75
2023/05/12 07:29:14;;;;;;;5.10;3.10;;;;;;;17.37;46.15;101841.16;109508;1248;61661;-75
2023/05/12 07:31:43;;;;;;;8.50;4.40;;;;;;;17.58;46.90;101839.03;109542;1247;59834;-74
2023/05/12 07:34:12;;;;;;;4.20;3.20;;;;;;;17.49;46.69;101839.47;109528;1244;63108;-75
2023/05/12 07:36:40;;;;;;;7.80;3.40;;;;;;;17.46;45.32;101834.41;109500;1244;61060;-75
2023/05/12 07:39:09;;;;;;;14.90;8.00;;;;;;;17.25;44.11;101833.89;109426;1247;57802;-74
2023/05/12 07:41:38;;;;;;;16.30;9.10;;;;;;;16.97;41.90;101835.20;109488;1248;61358;-74
2023/05/12 07:44:07;;;;;;;6.90;3.10;;;;;;;17.07;41.35;101834.16;109495;1247;61646;-73
2023/05/12 07:46:36;;;;;;;6.40;2.80;;;;;;;17.49;42.43;101831.77;109490;1248;59001;-74
2023/05/12 07:49:06;;;;;;;6.30;3.80;;;;;;;17.72;43.39;101824.65;109371;1244;73873;-75
2023/05/12 07:51:35;;;;;;;5.10;3.00;;;;;;;17.89;41.66;101829.09;109364;1247;60570;-74
2023/05/12 07:54:05;;;;;;;4.50;2.60;;;;;;;18.00;38.60;101819.49;109383;1248;60678;-74
2023/05/12 07:56:33;;;;;;;8.80;3.00;;;;;;;18.01;39.15;101820.33;109373;1247;63630;-74
2023/05/12 07:59:02;;;;;;;7.70;3.80;;;;;;;18.22;39.57;101819.69;109296;1248;62155;-75
2023/05/12 08:01:31;;;;;;;4.10;2.70;;;;;;;17.97;38.52;101823.44;109256;1248;59251;-75
2023/05/12 08:04:00;;;;;;;6.30;3.30;;;;;;;17.39;35.36;101821.30;109219;1247;62445;-76
2023/05/12 08:06:29;;;;;;;11.80;5.30;;;;;;;17.32;36.39;101821.86;109174;1247;60611;-76
2023/05/12 08:08:58;;;;;;;4.90;2.90;;;;;;;17.15;37.70;101822.59;109197;1247;61379;-75
2023/05/12 08:11:27;;;;;;;5.50;3.00;;;;;;;17.53;37.96;101828.02;109127;1244;73270;-77
2023/05/12 08:13:55;;;;;;;6.60;2.90;;;;;;;17.74;38.55;101826.63;109182;1247;72580;-77
2023/05/12 08:16:24;;;;;;;6.50;3.60;;;;;;;17.85;38.08;101827.06;109229;1244;60730;-77
2023/05/12 08:18:53;;;;;;;3.80;2.70;;;;;;;17.77;36.39;101827.73;109236;1245;63209;-76
2023/05/12 08:21:22;;;;;;;8.00;3.90;;;;;;;17.75;35.66;101824.25;109240;1247;61606;-77
2023/05/12 08:23:51;;;;;;;5.90;2.90;;;;;;;17.65;36.61;101825.94;109394;1245;57207;-77
2023/05/12 08:26:20;;;;;;;7.60;3.60;;;;;;;17.72;35.50;101824.48;109410;1244;70595;-78
2023/05/12 08:28:48;;;;;;;9.80;3.30;;;;;;;17.55;35.61;101825.93;109399;1244;72821;-77
2023/05/12 08:31:17;;;;;;;22.60;10.10;;;;;;;17.57;36.10;101828.06;109453;1244;60719;-77
2023/05/12 08:33:46;;;;;;;6.60;3.10;;;;;;;17.66;36.27;101832.62;109287;1244;63613;-77
2023/05/12 08:36:21;;;;;;;17.30;8.30;;;;;;;17.75;36.41;101828.55;109422;1247;57386;-76
2023/05/12 08:38:50;;;;;;;12.20;3.00;;;;;;;17.71;37.18;101826.20;109337;1245;57086;-76
2023/05/12 08:41:39;;;;;;;5.60;3.00;;;;;;;17.88;36.99;101830.27;109447;1244;72050;-76
2023/05/12 08:44:09;;;;;;;25.50;11.70;;;;;;;17.86;36.14;101828.83;109304;1246;62112;-76
2023/05/12 08:46:39;;;;;;;14.00;5.30;;;;;;;17.85;36.54;101831.33;109317;1244;59234;-78
2023/05/12 08:49:11;;;;;;;10.00;3.10;;;;;;;18.05;36.98;101834.95;109365;1245;62460;-77
2023/05/12 08:51:43;;;;;;;5.10;2.50;;;;;;;18.20;36.87;101831.13;109216;1248;60444;-76
2023/05/12 08:54:22;;;;;;;9.50;4.20;;;;;;;17.98;36.64;101831.97;109422;1245;60730;-77
2023/05/12 08:56:52;;;;;;;7.80;4.30;;;;;;;18.06;36.78;101828.50;109354;1245;62619;-77
2023/05/12 08:59:24;;;;;;;;;;;;;;;18.04;36.81;101829.50;109384;1244;61746;-77
2023/05/12 09:01:55;;;;;;;8.10;2.90;;;;;;;17.96;36.07;101832.30;109395;1244;69701;-77
2023/05/12 09:04:27;;;;;;;5.90;2.90;;;;;;;17.98;35.53;101828.30;109239;1244;74231;-77
2023/05/12 09:06:57;;;;;;;15.60;5.80;;;;;;;18.12;35.44;101827.25;109417;1247;61644;-76
2023/05/12 09:09:28;;;;;;;10.30;4.60;;;;;;;18.21;35.53;101830.20;109435;1245;61986;-77
2023/05/12 09:12:00;;;;;;;7.50;3.70;;;;;;;18.14;35.25;101827.06;109264;1244;74016;-76
2023/05/12 09:14:33;;;;;;;6.50;2.70;;;;;;;18.16;35.44;101828.64;109325;1245;62164;-77
2023/05/12 09:17:04;;;;;;;4.70;2.70;;;;;;;18.26;34.92;101827.30;109290;1244;60032;-77
2023/05/12 09:19:33;;;;;;;6.50;2.80;;;;;;;18.30;35.13;101827.42;109464;1245;62500;-80
2023/05/12 09:22:02;;;;;;;10.80;3.40;;;;;;;18.09;35.19;101830.15;109477;1244;57725;-77
2023/05/12 09:24:39;;;;;;;9.30;3.10;;;;;;;17.98;34.80;101826.73;109338;1244;57730;-76
2023/05/12 09:27:08;;;;;;;5.90;3.30;;;;;;;18.11;34.86;101823.67;109335;1244;62244;-77
2023/05/12 09:29:48;;;;;;;7.90;2.90;;;;;;;18.20;34.96;101823.55;109633;1242;71372;-76
2023/05/12 09:32:34;;;;;;;7.80;3.20;;;;;;;18.12;35.09;101810.02;109661;1243;70051;-76
2023/05/12 09:35:11;;;;;;;5.00;3.40;;;;;;;18.14;35.16;101810.84;109602;1244;72078;-79
2023/05/12 09:37:40;;;;;;;5.40;2.70;;;;;;;18.25;36.02;101812.02;109367;1247;57706;-77
2023/05/12 09:40:10;;;;;;;4.60;2.60;;;;;;;18.57;35.21;101812.52;109655;1243;61070;-76
2023/05/12 09:42:41;;;;;;;6.20;3.30;;;;;;;18.73;34.76;101812.93;109598;1242;74109;-77
2023/05/12 09:45:13;;;;;;;5.40;2.80;;;;;;;18.82;34.32;101816.55;109631;1244;71938;-79
2023/05/12 09:47:43;;;;;;;5.30;3.30;;;;;;;18.69;34.42;101812.70;109667;1243;60292;-77
2023/05/12 09:50:12;;;;;;;15.40;3.40;;;;;;;18.35;34.32;101806.55;109591;1243;63284;-78
2023/05/12 09:52:41;;;;;;;4.80;2.80;;;;;;;18.09;35.17;101802.64;109610;1242;57684;-78
2023/05/12 09:55:12;;;;;;;4.60;2.70;;;;;;;18.36;35.06;101803.77;109662;1241;57665;-77
2023/05/12 09:57:42;;;;;;;12.90;3.20;;;;;;;18.99;34.94;101804.58;109513;1242;72718;-78
2023/05/12 10:00:16;;;;;;;7.00;2.90;;;;;;;18.86;34.47;101804.69;109446;1241;60723;-78
2023/05/12 10:03:10;;;;;;;;;;;;;;;18.65;33.60;101803.58;109339;1243;61989;-77
2023/05/12 10:05:57;;;;;;;7.50;2.60;;;;;;;18.88;33.73;101804.17;109553;1241;63341;-77
2023/05/12 10:08:36;;;;;;;7.30;2.70;;;;;;;19.18;33.00;101804.05;109442;1245;57105;-77
2023/05/12 10:11:06;;;;;;;5.70;2.80;;;;;;;19.01;33.03;101802.46;109655;1241;57545;-75
2023/05/12 10:13:35;;;;;;;7.00;3.00;;;;;;;19.04;33.21;101797.91;109698;1244;72737;-77
2023/05/12 10:16:04;;;;;;;6.40;2.40;;;;;;;19.12;33.24;101797.73;109554;1243;72469;-78
2023/05/12 10:18:33;;;;;;;5.90;3.00;;;;;;;19.40;33.68;101794.20;109579;1241;59057;-78
2023/05/12 10:21:03;;;;;;;6.10;3.20;;;;;;;19.14;33.30;101794.04;109536;1241;63531;-77
2023/05/12 10:23:33;;;;;;;4.70;2.60;;;;;;;19.46;33.36;101789.95;109650;1241;61254;-76
2023/05/12 10:26:05;;;;;;;5.30;2.80;;;;;;;19.84;32.50;101787.03;109587;1244;57661;-78
2023/05/12 10:28:34;;;;;;;5.70;2.40;;;;;;;19.85;31.13;101786.55;109496;1244;74690;-78
2023/05/12 10:31:05;;;;;;;6.00;2.30;;;;;;;19.94;30.88;101783.40;109568;1244;72389;-78
2023/05/12 10:33:34;;;;;;;6.80;2.50;;;;;;;19.22;31.70;101784.42;109447;1242;60497;-76
2023/05/12 10:36:03;;;;;;;7.30;2.80;;;;;;;18.64;32.39;101782.10;109599;1244;72845;-78
2023/05/12 10:38:36;;;;;;;7.00;2.80;;;;;;;18.51;32.77;101782.27;109620;1242;57626;-77
2023/05/12 10:41:05;;;;;;;4.80;2.80;;;;;;;18.99;31.97;101776.98;109294;1244;61259;-78
2023/05/12 10:43:45;;;;;;;6.60;2.40;;;;;;;18.85;32.16;101775.45;109456;1243;62708;-78
2023/05/12 10:46:15;;;;;;;4.80;2.40;;;;;;;18.75;32.89;101776.73;109350;1245;61575;-78
2023/05/12 10:49:06;;;;;;;6.40;2.30;;;;;;;19.26;32.90;101779.48;109303;1242;70453;-78
2023/05/12 10:51:44;;;;;;;5.30;2.40;;;;;;;19.32;32.56;101775.70;109365;1243;73274;-78
2023/05/12 10:54:20;;;;;;;6.00;2.40;;;;;;;19.61;32.80;101780.86;109396;1241;57746;-76
2023/05/12 10:56:49;;;;;;;4.90;2.40;;;;;;;19.86;32.76;101787.46;109454;1243;61334;-77
2023/05/12 10:59:23;;;;;;;5.30;2.40;;;;;;;19.92;32.19;101784.13;109395;1242;73638;-77
2023/05/12 11:02:00;;;;;;;5.30;2.50;;;;;;;19.86;31.51;101785.15;109235;1241;61555;-74
2023/05/12 11:04:56;;;;;;;5.50;2.30;;;;;;;19.48;31.30;101778.77;109457;1241;59220;-86
2023/05/12 11:07:31;;;;;;;7.60;2.70;;;;;;;19.03;32.08;101777.64;109385;1241;64299;-83
2023/05/12 11:10:03;;;;;;;3.40;2.10;;;;;;;18.78;32.57;101779.95;109358;1241;57773;-78
2023/05/12 11:12:34;;;;;;;4.50;2.60;;;;;;;18.98;32.41;101779.43;109384;1241;61345;-77
2023/05/12 11:15:05;;;;;;;6.20;3.00;;;;;;;18.73;33.10;101779.69;109299;1243;66195;-76
2023/05/12 11:17:40;;;;;;;4.00;2.30;;;;;;;18.82;33.11;101775.59;109403;1241;62575;-78
2023/05/12 11:20:20;;;;;;;4.00;2.80;;;;;;;19.13;32.81;101776.60;109435;1241;59237;-78
2023/05/12 11:22:49;;;;;;;4.10;2.20;;;;;;;19.12;32.40;101775.70;109573;1241;72347;-78
2023/05/12 11:25:18;;;;;;;5.70;4.00;;;;;;;18.74;32.68;101775.23;109632;1244;57681;-81
2023/05/12 11:27:49;;;;;;;5.40;2.50;;;;;;;18.87;32.45;101776.67;109567;1241;57664;-71
2023/05/12 11:30:18;;;;;;;6.10;2.80;;;;;;;18.92;31.94;101773.41;109575;1241;62833;-68
2023/05/12 11:32:47;;;;;;;4.10;2.30;;;;;;;18.90;32.45;101772.52;109475;1241;62046;-67
2023/05/12 11:35:18;;;;;;;5.70;2.50;;;;;;;18.80;32.48;101772.23;109558;1243;60250;-69
2023/05/12 11:37:47;;;;;;;6.80;2.60;;;;;;;18.69;32.68;101762.77;109569;1241;63322;-70
2023/05/12 11:40:21;;;;;;;4.40;2.50;;;;;;;18.72;32.87;101770.78;109487;1242;61368;-71
2023/05/12 11:42:51;;;;;;;5.30;2.40;;;;;;;18.96;33.35;101770.27;109492;1241;57733;-70
2023/05/12 11:45:29;;;;;;;5.30;2.40;;;;;;;19.09;33.03;101766.09;109383;1243;63457;-69
2023/05/12 11:48:12;;;;;;;4.30;2.40;;;;;;;19.09;32.56;101767.14;109476;1241;72211;-72
2023/05/12 11:50:47;;;;;;;3.70;2.30;;;;;;;18.80;32.08;101766.36;109438;1241;59605;-75
2023/05/12 11:53:18;;;;;;;7.60;2.60;;;;;;;18.94;32.27;101766.04;109504;1241;63232;-75
2023/05/12 11:55:55;;;;;;;4.80;2.60;;;;;;;19.10;32.37;101762.73;109565;1244;60371;-74
2023/05/12 11:58:29;;;;;;;4.50;2.80;;;;;;;19.07;31.76;101760.61;109343;1241;61649;-75
2023/05/12 12:01:09;;;;;;;4.80;2.70;;;;;;;19.03;32.16;101763.46;109555;1241;72210;-76
2023/05/12 12:03:49;;;;;;;4.40;2.60;;;;;;;18.82;31.80;101762.85;109528;1241;62070;-74
2023/05/12 12:06:20;;;;;;;5.10;2.50;;;;;;;19.00;32.26;101759.41;109484;1241;70494;-73
2023/05/12 12:08:58;;;;;;;6.40;2.70;;;;;;;18.83;31.99;101761.88;109266;1241;74490;-72
2023/05/12 12:11:29;;;;;;;4.70;2.10;;;;;;;18.94;31.58;101743.43;109591;1244;57761;-71
2023/05/12 12:13:59;;;;;;;4.10;2.70;;;;;;;18.98;31.66;101754.54;109890;1240;59103;-71
2023/05/12 12:16:30;;;;;;;5.00;2.20;;;;;;;18.97;32.05;101755.00;109895;1240;74032;-71
2023/05/12 12:18:59;;;;;;;11.30;2.80;;;;;;;19.12;31.98;101753.61;109675;1244;62018;-82
2023/05/12 12:21:28;;;;;;;5.60;2.70;;;;;;;19.08;31.92;101756.38;109819;1239;59067;-75
2023/05/12 12:23:57;;;;;;;5.50;2.40;;;;;;;19.20;32.23;101756.40;109923;1238;73785;-75
2023/05/12 12:26:26;;;;;;;4.80;2.40;;;;;;;19.05;32.42;101756.36;109962;1239;57696;-74
2023/05/12 12:28:55;;;;;;;8.80;2.30;;;;;;;18.96;32.38;101754.69;109884;1239;57753;-78
2023/05/12 12:31:23;;;;;;;4.50;2.70;;;;;;;19.03;32.70;101753.21;109895;1239;73071;-76
2023/05/12 12:33:53;;;;;;;4.30;2.70;;;;;;;19.12;31.93;101752.59;109849;1239;72085;-74
2023/05/12 12:36:22;;;;;;;6.50;2.70;;;;;;;18.94;31.65;101751.23;109882;1239;71307;-76
2023/05/12 12:38:51;;;;;;;7.90;2.70;;;;;;;18.88;31.75;101748.17;109712;1238;73950;-75
2023/05/12 12:41:19;;;;;;;6.60;2.60;;;;;;;18.72;31.75;101746.10;109894;1238;61667;-70
2023/05/12 12:43:49;;;;;;;4.50;2.60;;;;;;;18.62;31.83;101745.73;109922;1239;57652;-74
2023/05/12 12:46:18;;;;;;;4.60;2.60;;;;;;;18.57;31.87;101743.39;109910;1238;73499;-82
2023/05/12 12:48:47;;;;;;;4.60;2.40;;;;;;;18.13;32.10;101744.31;109740;1241;62365;-79
2023/05/12 12:51:16;;;;;;;3.90;2.70;;;;;;;18.00;32.29;101737.31;109803;1242;60111;-73
2023/05/12 12:53:45;;;;;;;4.10;2.30;;;;;;;18.43;32.10;101736.68;109823;1240;64059;-77
2023/05/12 12:56:14;;;;;;;4.70;2.80;;;;;;;18.41;32.08;101735.50;109753;1242;59768;-78
2023/05/12 12:58:43;;;;;;;6.40;3.00;;;;;;;18.43;32.44;101734.64;109922;1241;57268;-78
2023/05/12 13:01:12;;;;;;;5.20;2.60;;;;;;;18.76;32.38;101731.65;109816;1241;62955;-73
2023/05/12 13:03:41;;;;;;;3.40;2.20;;;;;;;18.91;31.24;101730.80;109748;1241;60904;-73
2023/05/12 13:06:10;;;;;;;6.40;2.60;;;;;;;18.70;31.20;101731.80;109790;1241;69184;-70
2023/05/12 13:08:39;;;;;;;5.00;2.40;;;;;;;18.86;31.28;101732.16;109737;1241;74461;-72
2023/05/12 13:11:08;;;;;;;7.40;2.90;;;;;;;19.01;31.34;101731.68;109531;1242;57459;-74
2023/05/12 13:13:37;;;;;;;6.30;3.00;;;;;;;18.80;31.11;101735.15;109704;1239;57190;-78
2023/05/12 13:16:06;;;;;;;5.90;2.90;;;;;;;18.56;31.28;101731.48;109937;1238;72845;-78
2023/05/12 13:18:35;;;;;;;6.40;2.80;;;;;;;18.58;31.80;101729.02;109781;1239;72515;-73
2023/05/12 13:21:04;;;;;;;8.80;3.50;;;;;;;18.45;31.37;101731.39;109851;1239;69922;-73
2023/05/12 13:23:33;;;;;;;8.60;2.70;;;;;;;18.23;31.76;101727.60;109643;1238;74823;-75
2023/05/12 13:26:01;;;;;;;5.00;2.30;;;;;;;17.92;32.05;101727.13;109857;1239;57682;-75
2023/05/12 13:28:30;;;;;;;11.90;2.60;;;;;;;17.84;32.15;101724.45;109920;1239;57178;-74
2023/05/12 13:30:59;;;;;;;5.00;2.50;;;;;;;18.03;32.57;101726.00;109843;1241;63381;-73
2023/05/12 13:33:28;;;;;;;5.60;2.80;;;;;;;18.50;32.37;101726.17;109872;1238;71451;-73
2023/05/12 13:35:57;;;;;;;4.90;2.80;;;;;;;18.59;32.13;101725.40;109903;1238;70122;-73
2023/05/12 13:38:26;;;;;;;6.80;2.60;;;;;;;18.43;32.20;101721.14;109908;1238;72334;-72
2023/05/12 13:40:55;;;;;;;6.50;3.20;;;;;;;18.65;31.93;101718.56;109868;1239;57440;-71
2023/05/12 13:43:24;;;;;;;7.70;3.00;;;;;;;18.64;32.14;101721.64;109997;1241;60428;-73
2023/05/12 13:45:53;;;;;;;4.90;2.30;;;;;;;18.65;32.38;101719.27;109988;1241;63363;-72
2023/05/12 13:48:22;;;;;;;5.00;2.70;;;;;;;18.46;32.16;101717.56;109964;1241;61952;-74
2023/05/12 13:50:51;;;;;;;7.40;2.90;;;;;;;18.67;31.85;101719.73;109997;1238;70464;-73
2023/05/12 13:53:20;;;;;;;4.60;2.50;;;;;;;18.66;32.22;101716.86;109973;1241;63614;-72
2023/05/12 13:55:49;;;;;;;7.00;2.60;;;;;;;18.96;31.98;101711.12;109998;1239;61251;-73
2023/05/12 13:58:18;;;;;;;4.30;2.20;;;;;;;18.90;32.00;101713.98;109755;1238;61563;-72
2023/05/12 14:00:47;;;;;;;4.50;2.10;;;;;;;18.88;31.97;101710.66;110009;1241;63604;-73
2023/05/12 14:03:15;;;;;;;7.40;2.90;;;;;;;18.79;32.23;101713.67;110028;1238;71671;-74
2023/05/12 14:05:45;;;;;;;4.90;2.80;;;;;;;18.67;32.82;101712.85;110006;1238;70330;-72
2023/05/12 14:08:13;;;;;;;5.50;3.50;;;;;;;18.66;32.29;101712.48;109983;1238;73607;-72
2023/05/12 14:10:43;;;;;;;9.90;3.00;;;;;;;18.63;32.37;101711.66;109980;1241;57174;-72
2023/05/12 14:13:12;;;;;;;4.70;2.70;;;;;;;18.81;32.25;101712.52;109856;1238;60357;-72
2023/05/12 14:15:41;;;;;;;5.00;2.50;;;;;;;18.83;32.06;101711.45;109920;1238;62029;-73
2023/05/12 14:18:20;;;;;;;8.50;2.70;;;;;;;18.74;32.10;101711.67;109951;1238;72160;-73
2023/05/12 14:20:50;;;;;;;5.40;2.60;;;;;;;18.71;32.47;101711.11;109967;1239;60348;-74
2023/05/12 14:23:19;;;;;;;5.30;3.00;;;;;;;18.45;33.18;101709.58;109704;1242;63285;-71
2023/05/12 14:25:48;;;;;;;5.40;2.30;;;;;;;18.37;33.19;101710.23;109881;1238;61280;-73
2023/05/12 14:28:16;;;;;;;5.70;2.40;;;;;;;18.58;32.32;101709.64;109943;1241;57279;-73
2023/05/12 14:30:47;;;;;;;7.80;3.00;;;;;;;18.49;32.23;101709.23;109980;1239;62851;-72
2023/05/12 14:33:16;;;;;;;8.60;3.40;;;;;;;18.41;32.69;101706.58;109875;1238;61759;-72
2023/05/12 14:35:45;;;;;;;5.90;2.60;;;;;;;18.37;33.19;101701.45;109844;1238;70673;-72
2023/05/12 14:38:27;;;;;;;6.20;3.10;;;;;;;18.33;33.22;101704.52;110217;1235;73337;-72
2023/05/12 14:40:55;;;;;;;7.00;2.80;;;;;;;18.34;33.51;101704.06;110239;1236;60545;-71
2023/05/12 14:43:24;;;;;;;7.70;2.70;;;;;;;18.26;33.51;101706.98;109953;1239;57755;-74
2023/05/12 14:45:53;;;;;;;5.70;2.40;;;;;;;18.09;33.91;101704.64;110206;1236;62755;-73
2023/05/12 14:48:26;;;;;;;6.50;2.60;;;;;;;18.07;33.91;101705.36;110151;1237;61017;-73
2023/05/12 14:50:55;;;;;;;5.80;2.60;;;;;;;17.99;33.94;101704.50;110086;1239;70433;-72
2023/05/12 14:53:24;;;;;;;4.80;2.30;;;;;;;17.91;34.00;101708.40;109895;1238;63185;-73
2023/05/12 14:55:53;;;;;;;5.10;2.30;;;;;;;17.87;33.94;101707.45;110056;1237;57940;-71
2023/05/12 14:58:22;;;;;;;4.60;2.60;;;;;;;17.80;34.47;101708.61;110086;1236;60607;-73
2023/05/12 15:00:52;;;;;;;3.90;2.40;;;;;;;17.70;35.01;101708.09;110082;1238;73208;-73
2023/05/12 15:03:21;;;;;;;12.30;3.20;;;;;;;17.60;35.01;101707.16;110040;1236;60605;-71
2023/05/12 15:05:50;;;;;;;8.40;3.30;;;;;;;17.50;35.64;101703.48;110150;1237;60586;-72
2023/05/12 15:08:22;;;;;;;4.60;2.40;;;;;;;17.40;35.88;101705.20;110186;1237;72894;-71
2023/05/12 15:10:50;;;;;;;11.70;3.10;;;;;;;17.42;36.01;101703.58;110254;1238;60898;-72
2023/05/12 15:13:20;;;;;;;3.60;2.30;;;;;;;17.35;36.51;101707.93;110149;1238;57419;-73
2023/05/12 15:15:49;;;;;;;5.00;2.70;;;;;;;17.38;36.21;101702.33;110140;1239;73500;-73
2023/05/12 15:18:21;;;;;;;7.50;3.00;;;;;;;17.27;36.79;101699.46;110090;1236;62051;-74
2023/05/12 15:20:50;;;;;;;6.60;2.60;;;;;;;17.15;37.32;101699.94;110274;1236;60000;-74
2023/05/12 15:23:19;;;;;;;3.70;2.50;;;;;;;17.21;37.72;101699.20;110235;1238;62533;-73
2023/05/12 15:25:48;;;;;;;5.30;3.30;;;;;;;17.24;37.69;101696.36;109933;1237;61208;-71
2023/05/12 15:28:16;;;;;;;7.60;3.10;;;;;;;17.11;37.86;101694.98;110224;1237;60865;-71
2023/05/12 15:30:56;;;;;;;6.60;2.70;;;;;;;17.13;37.64;101693.77;110235;1237;63555;-71
2023/05/12 15:33:25;;;;;;;10.40;3.20;;;;;;;17.12;37.79;101691.71;110254;1236;72117;-71
2023/05/12 15:35:54;;;;;;;6.90;3.40;;;;;;;17.06;37.74;101692.91;110244;1236;60116;-72
2023/05/12 15:38:23;;;;;;;6.00;3.20;;;;;;;17.05;37.63;101689.62;110019;1237;62492;-72
2023/05/12 15:40:52;;;;;;;10.70;4.20;;;;;;;17.04;37.72;101690.63;110070;1238;60746;-72
2023/05/12 15:43:20;;;;;;;11.80;4.20;;;;;;;17.03;37.44;101690.01;109982;1239;62351;-71
2023/05/12 15:45:49;;;;;;;11.60;4.40;;;;;;;17.01;37.84;101687.38;109977;1238;63748;-71
2023/05/12 15:48:18;;;;;;;13.90;4.20;;;;;;;17.00;37.32;101686.73;110089;1236;60764;-74
2023/05/12 15:50:47;;;;;;;5.80;2.90;;;;;;;16.99;37.22;101683.52;110076;1236;67914;-72
2023/05/12 15:53:16;;;;;;;9.40;3.50;;;;;;;16.94;37.39;101683.95;110130;1236;62230;-71
2023/05/12 15:55:45;;;;;;;18.90;4.00;;;;;;;16.91;37.44;101685.23;109996;1237;57434;-70
2023/05/12 15:58:14;;;;;;;4.50;2.40;;;;;;;16.89;37.55;101682.19;110271;1236;57204;-72
2023/05/12 16:00:43;;;;;;;6.20;3.10;;;;;;;16.86;37.26;101682.30;110096;1237;63262;-71
2023/05/12 16:03:12;;;;;;;8.60;3.40;;;;;;;16.82;37.53;101682.31;109987;1238;72212;-73
2023/05/12 16:05:40;;;;;;;7.00;3.50;;;;;;;16.81;37.89;101682.35;109938;1237;70008;-72